Time;durP1;ratioP1;P1;durP2;ratioP2;P2;SDS_P1;SDS_P2;PMS_P1;PMS_P2;Temp;Humidity;BMP_temperature;BMP_pressure;BME280_temperature;BME280_humidity;BME280_pressure;Samples;Min_cycle;Max_cycle;Signal;HPM_P1;HPM_P2
2022/05/23 00:00:17;;;;;;;0.10;0.10;;;17.60;99.90;;;;;;5013620;28;20204;-61
2022/05/23 00:02:44;;;;;;;0.30;0.30;;;17.60;99.90;;;;;;5013580;28;20542;-62
2022/05/23 00:05:11;;;;;;;0.10;0.10;;;17.60;99.90;;;;;;5013563;28;20193;-61
2022/05/23 00:07:43;;;;;;;0.20;0.20;;;17.60;99.90;;;;;;5012981;28;20650;-62
2022/05/23 00:10:13;;;;;;;3.87;1.43;;;17.50;99.90;;;;;;5013510;28;20557;-62
2022/05/23 00:12:41;;;;;;;0.30;0.30;;;17.50;99.90;;;;;;5013432;28;20216;-62
2022/05/23 00:15:11;;;;;;;0.67;0.23;;;17.50;99.90;;;;;;5012639;28;20589;-62
2022/05/23 00:17:38;;;;;;;0.00;0.00;;;17.50;99.90;;;;;;5013400;28;20208;-61
2022/05/23 00:20:09;;;;;;;0.30;0.30;;;17.50;99.90;;;;;;5013319;28;20193;-61
2022/05/23 00:22:37;;;;;;;0.10;0.10;;;17.50;99.90;;;;;;5013099;28;20221;-62
2022/05/23 00:25:09;;;;;;;0.10;0.10;;;17.50;99.90;;;;;;5013014;28;20684;-61
2022/05/23 00:27:37;;;;;;;0.10;0.10;;;17.50;99.90;;;;;;5013276;28;20185;-62
2022/05/23 00:30:06;;;;;;;0.70;0.70;;;17.40;99.90;;;;;;5013267;28;20197;-61
2022/05/23 00:35:21;;;;;;;0.80;0.80;;;17.50;99.90;;;;;;5013126;28;20319;-61
2022/05/23 00:37:51;;;;;;;1.17;1.07;;;17.50;99.90;;;;;;5012789;28;20623;-61
2022/05/23 00:40:38;;;;;;;0.00;0.00;;;17.60;99.90;;;;;;5012822;28;20749;-61
2022/05/23 00:43:15;;;;;;;0.00;0.00;;;17.60;99.90;;;;;;5013113;28;20177;-62
2022/05/23 00:45:49;;;;;;;0.23;0.23;;;17.50;99.90;;;;;;5013129;28;20243;-62
2022/05/23 00:48:19;;;;;;;0.30;0.30;;;17.60;99.90;;;;;;5013049;28;20220;-62
2022/05/23 00:50:49;;;;;;;0.20;0.20;;;17.60;99.90;;;;;;5012720;28;20678;-62
2022/05/23 00:53:16;;;;;;;0.00;0.00;;;17.60;99.90;;;;;;5012585;28;20207;-62
2022/05/23 00:55:48;;;;;;;0.00;0.00;;;17.60;99.90;;;;;;5012938;28;20196;-62
2022/05/23 00:58:19;;;;;;;0.40;0.40;;;17.60;99.90;;;;;;5012891;28;20192;-61
2022/05/23 01:00:47;;;;;;;0.00;0.00;;;17.60;99.90;;;;;;5012893;28;20176;-61
2022/05/23 01:03:17;;;;;;;0.53;0.53;;;17.70;99.90;;;;;;5012822;28;20265;-61
2022/05/23 01:05:46;;;;;;;0.17;0.17;;;17.70;99.90;;;;;;5012206;28;20228;-61
2022/05/23 01:08:16;;;;;;;0.43;0.43;;;17.70;99.90;;;;;;5012666;28;20192;-61
2022/05/23 01:10:46;;;;;;;0.77;0.77;;;17.70;99.90;;;;;;5012740;28;20266;-62
2022/05/23 01:13:13;;;;;;;1.10;0.57;;;17.60;99.90;;;;;;5012646;28;20228;-62
2022/05/23 01:15:43;;;;;;;0.90;0.90;;;17.50;99.90;;;;;;5012708;28;20201;-62
2022/05/23 01:18:10;;;;;;;0.70;0.70;;;17.60;99.90;;;;;;5012696;28;20616;-61
2022/05/23 01:20:37;;;;;;;1.77;1.30;;;17.60;99.90;;;;;;5012625;28;20207;-61
2022/05/23 01:23:17;;;;;;;0.80;0.80;;;17.60;99.90;;;;;;5012643;28;20206;-61
2022/05/23 01:25:47;;;;;;;1.10;0.80;;;17.70;99.90;;;;;;5013937;28;20195;-61
2022/05/23 01:28:15;;;;;;;2.43;1.23;;;17.80;99.90;;;;;;5016445;28;20189;-61
2022/05/23 01:30:43;;;;;;;0.30;0.30;;;17.80;99.90;;;;;;5016411;28;20192;-61
2022/05/23 01:33:12;;;;;;;1.50;1.00;;;17.90;99.90;;;;;;5016316;28;20228;-61
2022/05/23 01:35:39;;;;;;;0.90;0.90;;;17.90;99.90;;;;;;5016294;28;20200;-61
2022/05/23 01:38:09;;;;;;;1.00;1.00;;;17.90;99.90;;;;;;5018393;28;20600;-62
2022/05/23 01:40:36;;;;;;;0.60;0.60;;;18.00;99.90;;;;;;5017397;28;20201;-62
2022/05/23 01:43:05;;;;;;;0.73;0.73;;;18.00;99.90;;;;;;5015975;28;20201;-62
2022/05/23 01:45:36;;;;;;;0.57;0.57;;;17.90;99.90;;;;;;5016185;28;20601;-61
2022/05/23 01:48:04;;;;;;;3.70;0.73;;;17.90;99.90;;;;;;5016237;28;20243;-61
2022/05/23 01:50:31;;;;;;;0.60;0.60;;;17.90;99.90;;;;;;5015830;28;20681;-62
2022/05/23 01:52:58;;;;;;;0.80;0.80;;;17.90;99.90;;;;;;5016019;28;20200;-61
2022/05/23 01:55:25;;;;;;;0.60;0.60;;;17.80;99.90;;;;;;5015995;28;20286;-62
2022/05/23 01:57:53;;;;;;;0.50;0.50;;;17.80;99.90;;;;;;5015943;28;20262;-62
2022/05/23 02:03:06;;;;;;;0.73;0.73;;;18.00;99.90;;;;;;5015659;28;20712;-61
2022/05/23 02:05:33;;;;;;;0.50;0.50;;;18.10;99.90;;;;;;5015574;28;20193;-61
2022/05/23 02:08:00;;;;;;;0.50;0.50;;;18.10;99.90;;;;;;5015451;28;20192;-61
2022/05/23 02:10:28;;;;;;;0.80;0.77;;;18.20;99.90;;;;;;5015802;28;20270;-61
2022/05/23 02:12:56;;;;;;;2.20;0.30;;;18.20;99.90;;;;;;5015556;28;20204;-62
2022/05/23 02:15:24;;;;;;;0.80;0.80;;;18.20;99.90;;;;;;5015657;28;20211;-61
2022/05/23 02:17:51;;;;;;;0.90;0.90;;;18.10;99.90;;;;;;5015590;28;20572;-61
2022/05/23 02:20:18;;;;;;;0.30;0.30;;;18.10;99.90;;;;;;5015622;28;20201;-61
2022/05/23 02:22:45;;;;;;;0.20;0.20;;;18.10;99.90;;;;;;5015237;28;20662;-61
2022/05/23 02:25:12;;;;;;;1.33;1.23;;;18.10;99.90;;;;;;5015136;28;20666;-62
2022/05/23 02:27:39;;;;;;;1.13;0.30;;;18.00;99.90;;;;;;5015402;28;20208;-61
2022/05/23 02:30:08;;;;;;;0.87;0.63;;;18.00;99.90;;;;;;5015336;28;20530;-61
2022/05/23 02:32:36;;;;;;;1.13;1.03;;;17.90;99.90;;;;;;5015396;28;20212;-61
2022/05/23 02:35:03;;;;;;;0.63;0.63;;;17.90;99.90;;;;;;5014909;28;20677;-60
2022/05/23 02:37:30;;;;;;;0.13;0.13;;;17.90;99.90;;;;;;5014124;28;20280;-62
2022/05/23 02:39:57;;;;;;;1.17;1.17;;;17.90;99.90;;;;;;5015220;28;20205;-61
2022/05/23 02:42:24;;;;;;;0.60;0.60;;;17.90;99.90;;;;;;5014856;28;20204;-61
2022/05/23 02:44:51;;;;;;;1.43;1.33;;;17.90;99.90;;;;;;5015455;28;20196;-61
2022/05/23 02:47:18;;;;;;;0.17;0.10;;;17.80;99.90;;;;;;5014851;28;20211;-61
2022/05/23 02:49:47;;;;;;;0.70;0.70;;;17.70;99.90;;;;;;5015012;28;20200;-62
2022/05/23 02:52:14;;;;;;;1.30;0.73;;;17.70;99.90;;;;;;5015059;28;20204;-62
2022/05/23 02:54:41;;;;;;;0.20;0.20;;;17.80;99.90;;;;;;5017739;28;20580;-62
2022/05/23 02:57:08;;;;;;;0.60;0.60;;;17.70;99.90;;;;;;5014934;28;20597;-61
2022/05/23 02:59:34;;;;;;;1.83;0.40;;;17.70;99.90;;;;;;5014793;28;20277;-61
2022/05/23 03:04:48;;;;;;;0.30;0.30;;;17.70;99.90;;;;;;5014729;28;20189;-61
2022/05/23 03:07:15;;;;;;;0.60;0.60;;;17.70;99.90;;;;;;5014116;28;20262;-61
2022/05/23 03:09:44;;;;;;;0.13;0.13;;;17.60;99.90;;;;;;5014627;28;20310;-62
2022/05/23 03:12:12;;;;;;;0.10;0.10;;;17.60;99.90;;;;;;5014571;28;20204;-61
2022/05/23 03:14:39;;;;;;;0.80;0.43;;;17.50;99.90;;;;;;5014489;28;20216;-61
2022/05/23 03:17:07;;;;;;;0.00;0.00;;;17.50;99.90;;;;;;5014581;28;20193;-61
2022/05/23 03:19:36;;;;;;;0.27;0.27;;;17.50;99.90;;;;;;5014462;28;20231;-61
2022/05/23 03:27:36;;;;;;;0.10;0.10;;;17.40;99.90;;;;;;5014265;28;20177;-61
2022/05/23 03:30:03;;;;;;;0.00;0.00;;;17.40;99.90;;;;;;5014233;28;20199;-61
2022/05/23 03:32:30;;;;;;;0.00;0.00;;;17.20;99.90;;;;;;5014274;28;20196;-61
2022/05/23 03:34:57;;;;;;;0.07;0.07;;;17.10;99.90;;;;;;5014148;28;20223;-61
2022/05/23 03:37:26;;;;;;;0.00;0.00;;;17.10;99.90;;;;;;5013935;28;20200;-61
2022/05/23 03:39:53;;;;;;;0.00;0.00;;;17.10;99.90;;;;;;5014169;28;20203;-61
2022/05/23 03:42:20;;;;;;;0.00;0.00;;;17.00;99.90;;;;;;5013811;28;20692;-61
2022/05/23 03:44:47;;;;;;;0.00;0.00;;;16.90;99.90;;;;;;5014077;28;20195;-61
2022/05/23 03:47:14;;;;;;;0.57;0.53;;;16.70;99.90;;;;;;5013915;28;20200;-60
2022/05/23 03:49:41;;;;;;;0.20;0.20;;;16.70;99.90;;;;;;5013824;28;20216;-60
2022/05/23 03:52:08;;;;;;;0.00;0.00;;;16.70;99.90;;;;;;5013849;28;20205;-61
2022/05/23 03:54:36;;;;;;;0.00;0.00;;;16.60;99.90;;;;;;5013537;28;20573;-61
2022/05/23 03:57:05;;;;;;;0.10;0.10;;;16.70;99.90;;;;;;5013747;28;20203;-61
2022/05/23 03:59:32;;;;;;;0.00;0.00;;;16.70;99.90;;;;;;5013540;28;20235;-61
2022/05/23 04:01:59;;;;;;;0.00;0.00;;;16.70;99.90;;;;;;5013668;28;20242;-61
2022/05/23 04:04:28;;;;;;;0.00;0.00;;;16.80;99.90;;;;;;5013396;28;20222;-61
2022/05/23 04:06:59;;;;;;;0.00;0.00;;;16.70;99.90;;;;;;5013082;28;20240;-61
2022/05/23 04:09:26;;;;;;;0.00;0.00;;;16.70;99.90;;;;;;5013633;28;20195;-61
2022/05/23 04:11:55;;;;;;;0.00;0.00;;;16.60;99.90;;;;;;5013846;28;20199;-63
2022/05/23 04:14:21;;;;;;;0.00;0.00;;;16.60;99.90;;;;;;5016045;28;20226;-62
2022/05/23 04:16:50;;;;;;;0.10;0.10;;;16.70;99.90;;;;;;5013114;28;20206;-61
2022/05/23 04:19:17;;;;;;;0.67;0.67;;;16.70;99.90;;;;;;5013446;28;20215;-61
2022/05/23 04:21:46;;;;;;;0.10;0.10;;;16.70;99.90;;;;;;5013312;28;20201;-61
2022/05/23 04:24:15;;;;;;;0.00;0.00;;;16.70;99.90;;;;;;5013365;28;20197;-62
2022/05/23 04:26:42;;;;;;;0.30;0.30;;;16.80;99.90;;;;;;5013206;28;20209;-62
2022/05/23 04:29:10;;;;;;;0.00;0.00;;;16.90;99.90;;;;;;5012911;28;20690;-61
2022/05/23 04:31:38;;;;;;;0.47;0.47;;;16.90;99.90;;;;;;5012949;28;20207;-61
2022/05/23 04:36:50;;;;;;;0.10;0.10;;;17.10;99.90;;;;;;5012951;28;20208;-60
2022/05/23 04:39:17;;;;;;;0.10;0.10;;;17.10;99.90;;;;;;5013185;28;20209;-60
2022/05/23 04:41:44;;;;;;;0.00;0.00;;;17.20;99.90;;;;;;5012898;28;20207;-61
2022/05/23 04:44:12;;;;;;;0.10;0.10;;;17.20;99.90;;;;;;5013065;28;20211;-60
2022/05/23 04:49:41;;;;;;;2.93;1.17;;;17.20;99.90;;;;;;5013020;28;20197;-60
2022/05/23 04:49:50;;;;;;;0.23;0.23;;;17.30;99.90;;;;;;5013018;28;20192;-60
2022/05/23 04:52:22;;;;;;;0.20;0.20;;;17.40;99.90;;;;;;5013034;28;20939;-61
2022/05/23 04:54:50;;;;;;;0.00;0.00;;;17.40;99.90;;;;;;5012983;28;20303;-61
2022/05/23 04:57:17;;;;;;;0.10;0.10;;;17.50;99.90;;;;;;5012528;28;21044;-61
2022/05/23 04:59:45;;;;;;;0.20;0.20;;;17.50;99.90;;;;;;5012544;28;20196;-60
2022/05/23 05:02:12;;;;;;;0.23;0.23;;;17.60;99.90;;;;;;5012764;28;20236;-60
2022/05/23 05:04:39;;;;;;;0.30;0.30;;;17.70;99.90;;;;;;5012780;28;20247;-60
2022/05/23 05:07:06;;;;;;;0.00;0.00;;;17.70;99.90;;;;;;5012105;28;20286;-60
2022/05/23 05:09:34;;;;;;;0.40;0.40;;;17.70;99.90;;;;;;5012373;28;20658;-61
2022/05/23 05:12:01;;;;;;;0.50;0.40;;;17.70;99.90;;;;;;5012895;28;20255;-61
2022/05/23 05:14:28;;;;;;;0.13;0.13;;;17.80;99.90;;;;;;5012585;28;20209;-60
2022/05/23 05:16:56;;;;;;;0.10;0.10;;;17.80;99.90;;;;;;5012762;28;20332;-61
2022/05/23 05:19:23;;;;;;;0.83;0.83;;;17.90;99.90;;;;;;5012730;28;20654;-60
2022/05/23 05:21:50;;;;;;;0.20;0.20;;;17.80;99.90;;;;;;5012693;28;20215;-61
2022/05/23 05:24:18;;;;;;;0.00;0.00;;;17.90;99.90;;;;;;5012595;28;20615;-61
2022/05/23 05:26:45;;;;;;;0.37;0.37;;;17.90;99.90;;;;;;5012159;28;20208;-61
2022/05/23 05:29:12;;;;;;;0.30;0.30;;;17.80;99.90;;;;;;5012183;28;20658;-61
2022/05/23 05:31:46;;;;;;;0.10;0.10;;;17.90;99.90;;;;;;5012440;28;20201;-60
2022/05/23 05:34:19;;;;;;;0.40;0.23;;;18.00;99.90;;;;;;5012353;28;20239;-60
2022/05/23 05:36:49;;;;;;;0.30;0.30;;;18.10;99.90;;;;;;5012212;28;20196;-61
2022/05/23 05:39:21;;;;;;;0.10;0.10;;;18.20;99.90;;;;;;5012300;28;20185;-61
2022/05/23 05:41:55;;;;;;;0.20;0.20;;;18.20;99.90;;;;;;5012752;28;20207;-62
2022/05/23 05:44:25;;;;;;;0.10;0.10;;;18.20;99.90;;;;;;5012407;28;20188;-61
2022/05/23 05:46:56;;;;;;;0.87;0.87;;;18.20;99.90;;;;;;5011861;28;20197;-61
2022/05/23 05:49:29;;;;;;;0.10;0.10;;;18.30;99.90;;;;;;5012216;28;20189;-61
2022/05/23 05:52:01;;;;;;;0.23;0.17;;;18.40;99.90;;;;;;5012216;28;20200;-61
2022/05/23 05:54:30;;;;;;;0.10;0.10;;;18.40;99.90;;;;;;5011851;28;20291;-61
2022/05/23 05:56:59;;;;;;;0.23;0.23;;;18.30;99.90;;;;;;5011965;28;20208;-62
2022/05/23 05:59:26;;;;;;;0.10;0.10;;;18.50;99.90;;;;;;5012032;28;20193;-61
2022/05/23 06:01:53;;;;;;;0.00;0.00;;;18.60;99.90;;;;;;5011751;28;20205;-61
2022/05/23 06:04:20;;;;;;;0.17;0.13;;;18.70;99.90;;;;;;5011993;28;20199;-61
2022/05/23 06:12:17;;;;;;;0.53;0.53;;;19.20;99.90;;;;;;5012452;28;20269;-61
2022/05/23 06:14:44;;;;;;;0.10;0.10;;;19.10;99.90;;;;;;5015432;28;20217;-62
2022/05/23 06:17:11;;;;;;;0.50;0.45;;;19.20;99.90;;;;;;5015110;28;20675;-63
2022/05/23 06:19:39;;;;;;;0.20;0.20;;;19.20;99.90;;;;;;5015355;28;20205;-62
2022/05/23 06:22:08;;;;;;;0.25;0.22;;;19.20;99.90;;;;;;5015272;28;20201;-62
2022/05/23 06:24:35;;;;;;;0.53;0.53;;;19.20;99.90;;;;;;5015163;28;20199;-62
2022/05/23 06:27:03;;;;;;;0.85;0.52;;;19.20;99.90;;;;;;5014873;28;20634;-62
2022/05/23 06:29:30;;;;;;;0.20;0.20;;;19.20;99.90;;;;;;5014926;28;20201;-62
2022/05/23 06:31:57;;;;;;;1.50;0.63;;;19.20;99.90;;;;;;5015100;28;20196;-62
2022/05/23 06:34:25;;;;;;;0.00;0.00;;;19.20;99.90;;;;;;5015000;28;20215;-61
2022/05/23 06:36:52;;;;;;;0.13;0.13;;;19.30;99.90;;;;;;5014805;28;20201;-62
2022/05/23 06:39:20;;;;;;;0.93;0.93;;;19.10;99.80;;;;;;5015002;28;20200;-62
2022/05/23 06:41:47;;;;;;;1.48;1.38;;;19.20;94.70;;;;;;5014718;28;20565;-63
2022/05/23 06:44:14;;;;;;;3.00;1.20;;;19.20;94.00;;;;;;5014848;28;20222;-63
2022/05/23 06:46:41;;;;;;;0.63;0.63;;;19.30;83.30;;;;;;5014790;28;20201;-62
2022/05/23 06:49:08;;;;;;;0.30;0.30;;;19.20;77.30;;;;;;5015042;28;20215;-63
2022/05/23 06:51:35;;;;;;;10.73;1.50;;;19.30;89.10;;;;;;5014927;28;20274;-63
2022/05/23 06:54:02;;;;;;;1.87;1.33;;;19.30;97.80;;;;;;5015000;28;20215;-63
2022/05/23 06:56:32;;;;;;;8.77;2.47;;;19.20;86.30;;;;;;5014753;28;20221;-63
2022/05/23 06:59:00;;;;;;;1.00;1.00;;;19.20;79.30;;;;;;5014997;28;20303;-62
2022/05/23 07:01:27;;;;;;;1.63;1.40;;;19.10;56.80;;;;;;5014797;28;20554;-62
2022/05/23 07:03:53;;;;;;;1.57;0.83;;;19.00;64.00;;;;;;5015181;28;20307;-62
2022/05/23 07:14:36;;;;;;;1.20;1.20;;;19.40;42.90;;;;;;5014485;28;20184;-62
2022/05/23 07:17:03;;;;;;;1.77;1.05;;;19.50;41.30;;;;;;5014215;28;20655;-63
2022/05/23 07:19:30;;;;;;;0.93;0.88;;;19.60;37.90;;;;;;5014455;28;20208;-62
2022/05/23 07:21:59;;;;;;;8.57;1.43;;;19.60;51.00;;;;;;5014415;28;20206;-62
2022/05/23 07:24:27;;;;;;;1.00;1.00;;;19.70;48.60;;;;;;5013930;28;20207;-62
2022/05/23 07:26:55;;;;;;;1.27;1.17;;;19.80;60.40;;;;;;5014132;28;20699;-63
2022/05/23 07:29:23;;;;;;;5.50;1.35;;;19.80;41.10;;;;;;5014337;28;20219;-62
2022/05/23 07:31:50;;;;;;;0.73;0.37;;;19.80;26.90;;;;;;5014369;28;20222;-62
2022/05/23 07:34:18;;;;;;;0.20;0.20;;;20.00;38.90;;;;;;5013990;28;20208;-62
2022/05/23 07:36:45;;;;;;;0.52;0.52;;;20.20;22.60;;;;;;5013853;28;20305;-62
2022/05/23 07:39:13;;;;;;;1.05;0.80;;;20.50;25.10;;;;;;5014287;28;20240;-63
2022/05/23 07:41:40;;;;;;;1.23;1.13;;;20.70;14.10;;;;;;5014071;28;20209;-63
2022/05/23 07:44:09;;;;;;;0.00;0.00;;;20.90;3.10;;;;;;5013941;28;20201;-62
2022/05/23 07:46:37;;;;;;;15.88;1.30;;;21.10;1.00;;;;;;5013342;28;20719;-63
2022/05/23 07:49:05;;;;;;;0.77;0.77;;;21.30;1.00;;;;;;5013698;28;20216;-63
2022/05/23 07:51:33;;;;;;;0.52;0.52;;;21.50;1.00;;;;;;5013507;28;20200;-63
2022/05/23 08:02:18;;;;;;;0.70;0.70;;;22.50;1.00;;;;;;5013433;28;20177;-63
2022/05/23 08:04:45;;;;;;;1.05;1.00;;;22.60;1.00;;;;;;5013339;28;20526;-63
2022/05/23 08:07:12;;;;;;;1.17;1.10;;;23.20;1.00;;;;;;5012427;28;20225;-63
2022/05/23 08:09:39;;;;;;;0.45;0.43;;;23.30;1.00;;;;;;5013298;28;20208;-63
2022/05/23 08:12:07;;;;;;;3.90;0.75;;;23.70;1.00;;;;;;5013216;28;20291;-63
2022/05/23 08:14:36;;;;;;;0.95;0.95;;;23.80;1.00;;;;;;5013227;28;20201;-63
2022/05/23 08:17:03;;;;;;;1.52;1.45;;;23.40;1.00;;;;;;5013192;28;20303;-63
2022/05/23 08:19:30;;;;;;;0.73;0.73;;;23.20;1.00;;;;;;5013149;28;20255;-63
2022/05/23 08:21:59;;;;;;;0.80;0.80;;;23.10;1.00;;;;;;5013111;28;20197;-63
2022/05/23 08:24:25;;;;;;;9.15;1.70;;;23.30;1.00;;;;;;5012954;28;20205;-63
2022/05/23 08:26:53;;;;;;;0.43;0.43;;;24.00;1.00;;;;;;5012964;28;20200;-64
2022/05/23 08:29:20;;;;;;;1.08;1.08;;;24.00;1.00;;;;;;5012964;28;20281;-63
2022/05/23 08:31:49;;;;;;;2.05;1.40;;;24.00;1.00;;;;;;5012956;28;20212;-63
2022/05/23 08:34:16;;;;;;;1.65;1.35;;;23.50;1.00;;;;;;5012844;28;20192;-63
2022/05/23 08:36:43;;;;;;;0.80;0.80;;;23.40;1.00;;;;;;5011952;28;20220;-63
2022/05/23 08:39:11;;;;;;;0.68;0.68;;;23.60;1.00;;;;;;5012844;28;20205;-64
2022/05/23 08:41:40;;;;;;;0.85;0.85;;;23.60;1.00;;;;;;5012729;28;20200;-63
2022/05/23 08:44:17;;;;;;;1.23;1.13;;;23.20;1.00;;;;;;5012520;28;20700;-63
2022/05/23 08:46:54;;;;;;;1.10;1.10;;;22.90;1.00;;;;;;5012747;28;20188;-63
2022/05/23 08:49:32;;;;;;;0.68;0.68;;;22.80;1.00;;;;;;5012850;28;20181;-62
2022/05/23 08:52:07;;;;;;;1.25;1.15;;;22.70;1.00;;;;;;5012451;28;20656;-63
2022/05/23 08:54:46;;;;;;;2.17;0.95;;;22.50;1.00;;;;;;5012695;28;20251;-62
2022/05/23 08:57:29;;;;;;;0.85;0.85;;;22.40;1.00;;;;;;5012728;28;20209;-63
2022/05/23 09:00:02;;;;;;;0.38;0.38;;;22.20;1.00;;;;;;5012824;28;20173;-63
2022/05/23 09:02:38;;;;;;;0.77;0.77;;;22.00;1.00;;;;;;5012796;28;20209;-63
2022/05/23 09:05:11;;;;;;;0.85;0.85;;;21.80;1.00;;;;;;5012459;28;20251;-63
2022/05/23 09:07:47;;;;;;;0.40;0.40;;;21.70;1.00;;;;;;5012176;28;20246;-63
2022/05/23 09:10:21;;;;;;;4.65;0.80;;;21.70;1.00;;;;;;5012814;28;20189;-64
2022/05/23 09:12:51;;;;;;;0.70;0.70;;;21.60;1.00;;;;;;5012515;28;20185;-63
2022/05/23 09:15:18;;;;;;;0.80;0.80;;;21.70;1.00;;;;;;5012476;28;20233;-63
2022/05/23 09:17:51;;;;;;;1.13;0.70;;;21.80;1.00;;;;;;5012495;28;20203;-64
2022/05/23 09:20:26;;;;;;;2.53;0.68;;;22.00;1.00;;;;;;5012524;28;20181;-65
2022/05/23 09:22:56;;;;;;;1.17;1.17;;;22.20;1.00;;;;;;5012324;28;20199;-63
2022/05/23 09:25:25;;;;;;;0.77;0.77;;;22.20;1.00;;;;;;5012413;28;20208;-62
2022/05/23 09:28:19;;;;;;;1.75;1.25;;;22.30;1.00;;;;;;5012201;28;20303;-61
2022/05/23 09:30:54;;;;;;;0.75;0.70;;;22.50;1.00;;;;;;5012440;28;20185;-61
2022/05/23 09:33:23;;;;;;;1.58;1.38;;;22.50;1.00;;;;;;5012040;28;20224;-60
2022/05/23 09:35:54;;;;;;;1.60;1.38;;;22.50;1.00;;;;;;5011991;28;20213;-61
2022/05/23 09:38:23;;;;;;;0.60;0.60;;;22.40;1.00;;;;;;5012416;28;20232;-61
2022/05/23 09:40:51;;;;;;;0.70;0.70;;;22.40;1.00;;;;;;5012107;28;20286;-63
2022/05/23 09:49:07;;;;;;;1.27;1.17;;;23.10;1.00;;;;;;5016059;28;20603;-63
2022/05/23 09:51:50;;;;;;;1.52;1.30;;;23.40;1.00;;;;;;5015773;28;20549;-63
2022/05/23 09:54:20;;;;;;;2.17;1.98;;;23.90;1.00;;;;;;5015826;28;20220;-63
2022/05/23 09:56:48;;;;;;;3.47;1.02;;;24.00;1.00;;;;;;5015870;28;20213;-63
2022/05/23 09:59:24;;;;;;;1.88;1.52;;;24.00;1.00;;;;;;5015813;28;20205;-62
2022/05/23 10:01:52;;;;;;;2.28;1.65;;;24.20;1.00;;;;;;5015813;28;20330;-62
2022/05/23 10:04:27;;;;;;;4.38;1.13;;;24.50;1.00;;;;;;5015678;28;20205;-63
2022/05/23 10:06:54;;;;;;;12.85;1.50;;;24.40;1.00;;;;;;5015226;28;20228;-63
2022/05/23 10:09:31;;;;;;;1.52;1.35;;;24.80;1.00;;;;;;5015670;28;20308;-63
2022/05/23 10:12:01;;;;;;;1.95;1.80;;;25.70;1.00;;;;;;5015460;28;20616;-63
2022/05/23 10:14:43;;;;;;;4.57;1.63;;;25.80;1.00;;;;;;5015372;28;20744;-63
2022/05/23 10:17:10;;;;;;;0.80;0.80;;;26.30;1.00;;;;;;5015271;28;20209;-64
2022/05/23 10:19:39;;;;;;;2.80;2.13;;;26.20;1.00;;;;;;5014956;28;20567;-63
2022/05/23 10:22:16;;;;;;;1.23;0.85;;;25.90;1.00;;;;;;5014862;28;20201;-64
2022/05/23 10:24:51;;;;;;;0.88;0.88;;;26.10;1.00;;;;;;5014726;28;20196;-64
2022/05/23 10:27:30;;;;;;;1.05;1.05;;;26.70;1.00;;;;;;5015214;28;20177;-64
2022/05/23 10:30:00;;;;;;;1.20;1.15;;;26.40;1.00;;;;;;5014546;28;20224;-64
2022/05/23 10:32:34;;;;;;;0.47;0.47;;;26.30;1.00;;;;;;5015228;28;20197;-63
2022/05/23 10:35:11;;;;;;;1.23;1.15;;;26.10;1.00;;;;;;5015206;28;20184;-64
2022/05/23 10:37:40;;;;;;;1.17;1.13;;;26.60;1.00;;;;;;5014187;28;20237;-64
2022/05/23 10:43:01;;;;;;;0.85;0.85;;;27.30;1.00;;;;;;5014714;28;20618;-64
2022/05/23 10:45:33;;;;;;;0.57;0.57;;;27.60;1.00;;;;;;5014996;28;20255;-63
2022/05/23 10:48:43;;;;;;;0.82;0.80;;;27.50;1.00;;;;;;5014620;28;20552;-64
2022/05/23 10:51:28;;;;;;;0.60;0.60;;;27.50;1.00;;;;;;5014476;28;20209;-64
2022/05/23 10:54:08;;;;;;;4.50;1.05;;;27.30;1.00;;;;;;5014854;28;20189;-64
2022/05/23 10:56:58;;;;;;;1.67;1.13;;;27.40;1.00;;;;;;5014277;28;20275;-64
2022/05/23 10:59:34;;;;;;;1.60;1.48;;;26.80;1.00;;;;;;5013866;28;20197;-65
2022/05/23 11:02:12;;;;;;;1.02;1.02;;;26.80;1.00;;;;;;5014729;28;20612;-65
2022/05/23 11:04:50;;;;;;;0.50;0.50;;;26.40;1.00;;;;;;5013986;28;20189;-64
2022/05/23 11:07:34;;;;;;;1.65;1.00;;;26.80;1.00;;;;;;5013985;28;20275;-65
2022/05/23 11:10:11;;;;;;;0.10;0.10;;;27.40;1.00;;;;;;5014351;28;20197;-63
2022/05/23 11:12:45;;;;;;;4.03;1.38;;;27.40;1.00;;;;;;5014068;28;20188;-63
2022/05/23 11:15:28;;;;;;;0.15;0.15;;;27.40;1.00;;;;;;5014106;28;20189;-62
2022/05/23 11:18:03;;;;;;;0.70;0.50;;;27.30;1.00;;;;;;5014309;28;20213;-62
2022/05/23 11:20:34;;;;;;;3.97;1.17;;;27.40;1.00;;;;;;5013945;28;20211;-64
2022/05/23 11:23:08;;;;;;;0.45;0.45;;;27.00;1.00;;;;;;5013910;28;20196;-62
2022/05/23 11:25:39;;;;;;;1.05;0.90;;;27.30;1.00;;;;;;5014233;28;20204;-63
2022/05/23 11:33:58;;;;;;;15.90;1.50;;;27.60;1.00;;;;;;5013697;28;20786;-62
2022/05/23 11:36:44;;;;;;;1.02;0.70;;;26.90;1.00;;;;;;5013877;28;20668;-63
2022/05/23 11:39:45;;;;;;;5.05;1.20;;;26.30;1.00;;;;;;5013580;28;20197;-63
2022/05/23 11:42:14;;;;;;;0.60;0.60;;;26.00;1.00;;;;;;5013820;28;20363;-63
2022/05/23 11:47:56;;;;;;;0.20;0.20;;;26.60;1.00;;;;;;5013262;28;20590;-61
2022/05/23 11:50:26;;;;;;;0.22;0.20;;;27.00;1.00;;;;;;5013512;28;20564;-61
2022/05/23 11:53:09;;;;;;;0.70;0.70;;;27.20;1.00;;;;;;5013737;28;20209;-61
2022/05/23 11:56:05;;;;;;;0.10;0.10;;;26.90;1.00;;;;;;5013496;28;20204;-62
2022/05/23 11:58:46;;;;;;;2.10;2.00;;;27.00;1.00;;;;;;5013289;28;20189;-63
2022/05/23 12:01:27;;;;;;;5.88;1.25;;;27.90;1.00;;;;;;5013453;28;20220;-64
2022/05/23 12:04:27;;;;;;;0.47;0.47;;;27.80;1.00;;;;;;5013308;28;20700;-62
2022/05/23 12:06:54;;;;;;;3.42;0.43;;;27.80;1.00;;;;;;5012893;28;20268;-62
2022/05/23 12:09:36;;;;;;;1.10;0.65;;;27.40;1.00;;;;;;5013154;28;20705;-62
2022/05/23 12:12:43;;;;;;;0.10;0.10;;;27.60;1.00;;;;;;5013138;28;20251;-62
2022/05/23 12:15:11;;;;;;;2.13;1.17;;;27.30;1.00;;;;;;5012968;28;20184;-63
2022/05/23 12:17:38;;;;;;;1.23;0.73;;;27.40;1.00;;;;;;5012831;28;20712;-63
2022/05/23 12:20:22;;;;;;;2.38;1.52;;;27.60;1.00;;;;;;5012437;28;20201;-63
2022/05/23 12:23:13;;;;;;;0.88;0.88;;;27.00;1.00;;;;;;5013043;28;20193;-63
2022/05/23 12:25:41;;;;;;;1.83;1.42;;;26.90;1.00;;;;;;5013148;28;20189;-62
2022/05/23 12:28:26;;;;;;;5.00;1.10;;;26.50;1.00;;;;;;5013034;28;20231;-63
2022/05/23 12:31:10;;;;;;;2.08;1.52;;;26.20;1.00;;;;;;5013075;28;20227;-63
2022/05/23 12:33:54;;;;;;;1.63;1.08;;;26.10;1.00;;;;;;5013054;28;20197;-63
2022/05/23 12:36:26;;;;;;;1.60;1.50;;;26.00;1.00;;;;;;5009249;28;20232;-65
2022/05/23 12:39:36;;;;;;;0.82;0.82;;;25.90;1.00;;;;;;5012722;28;20181;-65
2022/05/23 12:42:15;;;;;;;1.52;0.88;;;25.90;1.00;;;;;;5012943;28;20197;-64
2022/05/23 12:45:09;;;;;;;1.08;0.98;;;25.90;1.00;;;;;;5012913;28;20192;-64
2022/05/23 12:47:58;;;;;;;0.93;0.93;;;25.60;1.00;;;;;;5012347;28;20181;-64
2022/05/23 12:50:37;;;;;;;2.22;1.70;;;25.60;1.00;;;;;;5012514;28;20213;-64
2022/05/23 12:53:23;;;;;;;1.02;1.02;;;25.60;1.00;;;;;;5012729;28;20185;-66
2022/05/23 12:56:06;;;;;;;0.57;0.57;;;25.50;1.00;;;;;;5012413;28;20192;-67
2022/05/23 12:59:00;;;;;;;0.60;0.60;;;25.60;1.00;;;;;;5012698;28;20272;-64
2022/05/23 13:01:31;;;;;;;1.65;0.75;;;25.70;1.00;;;;;;5012660;28;20320;-64
2022/05/23 13:04:07;;;;;;;1.65;1.55;;;25.90;1.00;;;;;;5012657;28;20207;-63
2022/05/23 13:06:38;;;;;;;5.00;1.85;;;25.90;1.00;;;;;;5012323;28;20180;-64
2022/05/23 13:09:10;;;;;;;1.40;1.30;;;25.80;1.00;;;;;;5012376;28;20189;-64
2022/05/23 13:11:41;;;;;;;2.08;0.77;;;25.70;1.00;;;;;;5012681;28;20243;-64
2022/05/23 13:14:08;;;;;;;1.13;1.02;;;25.20;1.00;;;;;;5012309;28;20215;-64
2022/05/23 13:16:38;;;;;;;7.00;1.73;;;24.90;1.00;;;;;;5012401;28;20255;-63
2022/05/23 13:22:10;;;;;;;5.78;2.78;;;24.20;1.00;;;;;;5013925;28;20748;-64
2022/05/23 13:24:54;;;;;;;3.22;1.85;;;24.00;1.00;;;;;;5016179;28;20712;-66
2022/05/23 13:27:23;;;;;;;1.48;1.15;;;23.80;16.50;;;;;;5016572;28;20189;-66
2022/05/23 13:29:53;;;;;;;4.70;1.42;;;23.70;52.60;;;;;;5016504;28;20212;-65
2022/05/23 13:32:20;;;;;;;1.67;1.50;;;23.60;53.80;;;;;;5016385;28;20200;-66
2022/05/23 13:34:49;;;;;;;2.00;1.38;;;23.50;71.00;;;;;;5016171;28;20228;-63
2022/05/23 13:37:28;;;;;;;1.05;1.05;;;23.50;99.90;;;;;;5015222;28;20683;-64
2022/05/23 13:39:56;;;;;;;2.88;1.63;;;23.60;99.90;;;;;;5016064;28;20200;-64
2022/05/23 13:42:24;;;;;;;2.33;1.45;;;23.50;95.20;;;;;;5016027;28;20304;-64
2022/05/23 13:44:52;;;;;;;4.03;1.52;;;23.60;99.90;;;;;;5015767;28;20239;-64
2022/05/23 13:47:22;;;;;;;1.30;1.20;;;23.60;99.90;;;;;;5015791;28;20660;-64
2022/05/23 13:49:59;;;;;;;5.55;1.77;;;23.80;82.60;;;;;;5015976;28;20185;-63
2022/05/23 13:52:32;;;;;;;0.90;0.90;;;23.70;79.20;;;;;;5015764;28;20185;-63
2022/05/23 13:55:05;;;;;;;1.85;1.50;;;23.70;96.80;;;;;;5015711;28;20213;-64
2022/05/23 13:57:39;;;;;;;2.30;1.63;;;23.70;71.90;;;;;;5015505;28;20205;-63
2022/05/23 14:00:13;;;;;;;1.48;1.38;;;23.90;97.10;;;;;;5015643;28;20192;-63
2022/05/23 14:02:50;;;;;;;2.60;1.70;;;24.20;96.30;;;;;;5015561;28;20279;-62
2022/05/23 14:05:20;;;;;;;1.60;1.50;;;24.50;84.40;;;;;;5015396;28;20196;-62
2022/05/23 14:07:48;;;;;;;8.57;1.73;;;25.00;45.20;;;;;;5015210;28;20236;-64
2022/05/23 14:10:22;;;;;;;3.28;1.48;;;25.00;38.30;;;;;;5015391;28;20205;-63